sensor_id;sensor_type;location;lat;lon;timestamp;pressure;altitude;pressure_sealevel;temperature;humidity
84318;BME280;74497;51.654;14.238;2024-02-04T00:02:20;100650.66;;;9.07;100.00
84318;BME280;74497;51.654;14.238;2024-02-04T00:04:48;100671.72;;;9.10;100.00
84318;BME280;74497;51.654;14.238;2024-02-04T00:07:13;100669.06;;;9.10;100.00
84318;BME280;74497;51.654;14.238;2024-02-04T00:09:39;100675.63;;;9.06;100.00
84318;BME280;74497;51.654;14.238;2024-02-04T00:12:05;100679.41;;;9.04;100.00
84318;BME280;74497;51.654;14.238;2024-02-04T00:14:32;100678.25;;;8.97;100.00
84318;BME280;74497;51.654;14.238;2024-02-04T00:16:57;100682.31;;;8.91;100.00
84318;BME280;74497;51.654;14.238;2024-02-04T00:19:23;100688.50;;;8.91;100.00
84318;BME280;74497;51.654;14.238;2024-02-04T00:21:49;100676.41;;;8.87;100.00
84318;BME280;74497;51.654;14.238;2024-02-04T00:24:14;100684.50;;;8.76;100.00
84318;BME280;74497;51.654;14.238;2024-02-04T00:26:40;100687.56;;;8.72;100.00
84318;BME280;74497;51.654;14.238;2024-02-04T00:29:05;100698.75;;;8.65;100.00
84318;BME280;74497;51.654;14.238;2024-02-04T00:31:31;100707.13;;;8.61;100.00
84318;BME280;74497;51.654;14.238;2024-02-04T00:33:57;100680.97;;;8.45;100.00
84318;BME280;74497;51.654;14.238;2024-02-04T00:36:22;100683.38;;;8.48;100.00
84318;BME280;74497;51.654;14.238;2024-02-04T00:38:48;100681.25;;;8.42;100.00
84318;BME280;74497;51.654;14.238;2024-02-04T00:41:14;100692.13;;;8.39;100.00
84318;BME280;74497;51.654;14.238;2024-02-04T00:43:39;100693.75;;;8.30;100.00
84318;BME280;74497;51.654;14.238;2024-02-04T00:46:05;100694.13;;;8.26;100.00
84318;BME280;74497;51.654;14.238;2024-02-04T00:48:32;100686.41;;;8.23;100.00
84318;BME280;74497;51.654;14.238;2024-02-04T00:50:58;100686.78;;;8.18;100.00
84318;BME280;74497;51.654;14.238;2024-02-04T00:53:23;100702.06;;;8.16;100.00
84318;BME280;74497;51.654;14.238;2024-02-04T00:55:51;100688.47;;;8.19;100.00
84318;BME280;74497;51.654;14.238;2024-02-04T00:58:17;100714.91;;;8.11;100.00
84318;BME280;74497;51.654;14.238;2024-02-04T01:00:42;100714.28;;;8.07;100.00
84318;BME280;74497;51.654;14.238;2024-02-04T01:03:08;100714.56;;;8.04;100.00
84318;BME280;74497;51.654;14.238;2024-02-04T01:05:33;100726.88;;;8.05;100.00
84318;BME280;74497;51.654;14.238;2024-02-04T01:07:59;100725.72;;;7.98;100.00
84318;BME280;74497;51.654;14.238;2024-02-04T01:10:26;100727.91;;;7.93;100.00
84318;BME280;74497;51.654;14.238;2024-02-04T01:12:51;100737.00;;;7.91;100.00
84318;BME280;74497;51.654;14.238;2024-02-04T01:15:17;100727.34;;;7.90;100.00
84318;BME280;74497;51.654;14.238;2024-02-04T01:17:43;100722.13;;;7.88;100.00
84318;BME280;74497;51.654;14.238;2024-02-04T01:20:09;100734.00;;;7.84;100.00
84318;BME280;74497;51.654;14.238;2024-02-04T01:22:35;100736.19;;;7.79;100.00
84318;BME280;74497;51.654;14.238;2024-02-04T01:25:00;100729.91;;;7.80;100.00
84318;BME280;74497;51.654;14.238;2024-02-04T01:27:26;100717.94;;;7.74;100.00
84318;BME280;74497;51.654;14.238;2024-02-04T01:29:51;100722.69;;;7.71;100.00
84318;BME280;74497;51.654;14.238;2024-02-04T01:32:19;100721.25;;;7.67;100.00
84318;BME280;74497;51.654;14.238;2024-02-04T01:34:44;100699.25;;;7.65;100.00
84318;BME280;74497;51.654;14.238;2024-02-04T01:37:10;100694.19;;;7.62;100.00
84318;BME280;74497;51.654;14.238;2024-02-04T01:39:35;100689.22;;;7.57;100.00
84318;BME280;74497;51.654;14.238;2024-02-04T01:42:01;100677.06;;;7.54;100.00
84318;BME280;74497;51.654;14.238;2024-02-04T01:44:27;100667.13;;;7.56;100.00
84318;BME280;74497;51.654;14.238;2024-02-04T01:46:53;100663.78;;;7.43;100.00
84318;BME280;74497;51.654;14.238;2024-02-04T01:49:19;100667.19;;;7.45;100.00
84318;BME280;74497;51.654;14.238;2024-02-04T01:51:45;100673.59;;;7.43;100.00
84318;BME280;74497;51.654;14.238;2024-02-04T01:54:11;100680.72;;;7.42;100.00
84318;BME280;74497;51.654;14.238;2024-02-04T01:56:37;100688.56;;;7.44;100.00
84318;BME280;74497;51.654;14.238;2024-02-04T01:59:03;100689.41;;;7.44;100.00
84318;BME280;74497;51.654;14.238;2024-02-04T02:01:28;100694.72;;;7.44;100.00
84318;BME280;74497;51.654;14.238;2024-02-04T02:03:54;100696.94;;;7.39;100.00
84318;BME280;74497;51.654;14.238;2024-02-04T02:06:21;100695.25;;;7.38;100.00
84318;BME280;74497;51.654;14.238;2024-02-04T02:08:46;100692.94;;;7.34;100.00
84318;BME280;74497;51.654;14.238;2024-02-04T02:11:21;100702.72;;;7.33;100.00
84318;BME280;74497;51.654;14.238;2024-02-04T02:13:52;100705.00;;;7.38;100.00
84318;BME280;74497;51.654;14.238;2024-02-04T02:16:23;100695.69;;;7.43;100.00
84318;BME280;74497;51.654;14.238;2024-02-04T02:18:53;100692.69;;;7.37;100.00
84318;BME280;74497;51.654;14.238;2024-02-04T02:24:38;100695.47;;;7.35;100.00
84318;BME280;74497;51.654;14.238;2024-02-04T02:27:07;100693.91;;;7.32;100.00
84318;BME280;74497;51.654;14.238;2024-02-04T02:29:33;100694.84;;;7.31;100.00
84318;BME280;74497;51.654;14.238;2024-02-04T02:32:00;100694.84;;;7.31;100.00
84318;BME280;74497;51.654;14.238;2024-02-04T02:34:26;100698.25;;;7.34;100.00
84318;BME280;74497;51.654;14.238;2024-02-04T02:37:09;100697.16;;;7.36;100.00
84318;BME280;74497;51.654;14.238;2024-02-04T02:39:45;100666.09;;;7.37;100.00
84318;BME280;74497;51.654;14.238;2024-02-04T02:42:14;100674.81;;;7.39;100.00
84318;BME280;74497;51.654;14.238;2024-02-04T02:44:43;100669.75;;;7.36;100.00
84318;BME280;74497;51.654;14.238;2024-02-04T02:47:10;100676.50;;;7.40;100.00
84318;BME280;74497;51.654;14.238;2024-02-04T02:49:36;100686.28;;;7.39;100.00
84318;BME280;74497;51.654;14.238;2024-02-04T02:52:02;100693.53;;;7.37;100.00
84318;BME280;74497;51.654;14.238;2024-02-04T02:54:27;100699.59;;;7.39;100.00
84318;BME280;74497;51.654;14.238;2024-02-04T02:56:53;100684.63;;;7.38;100.00
84318;BME280;74497;51.654;14.238;2024-02-04T02:59:19;100684.63;;;7.38;100.00
84318;BME280;74497;51.654;14.238;2024-02-04T03:01:44;100677.84;;;7.34;100.00
84318;BME280;74497;51.654;14.238;2024-02-04T03:04:10;100674.34;;;7.34;100.00
84318;BME280;74497;51.654;14.238;2024-02-04T03:06:36;100676.78;;;7.25;100.00
84318;BME280;74497;51.654;14.238;2024-02-04T03:09:01;100668.06;;;7.23;100.00
84318;BME280;74497;51.654;14.238;2024-02-04T03:11:27;100668.81;;;7.25;100.00
84318;BME280;74497;51.654;14.238;2024-02-04T03:13:53;100660.94;;;7.24;100.00
84318;BME280;74497;51.654;14.238;2024-02-04T03:16:18;100669.19;;;7.21;100.00
84318;BME280;74497;51.654;14.238;2024-02-04T03:18:45;100674.72;;;7.29;100.00
84318;BME280;74497;51.654;14.238;2024-02-04T03:21:15;100670.38;;;7.28;100.00
84318;BME280;74497;51.654;14.238;2024-02-04T03:23:42;100676.88;;;7.24;100.00
84318;BME280;74497;51.654;14.238;2024-02-04T03:26:11;100673.66;;;7.20;100.00
84318;BME280;74497;51.654;14.238;2024-02-04T03:28:37;100670.50;;;7.26;100.00
84318;BME280;74497;51.654;14.238;2024-02-04T03:31:03;100662.91;;;7.22;100.00
84318;BME280;74497;51.654;14.238;2024-02-04T03:33:28;100663.38;;;7.27;100.00
84318;BME280;74497;51.654;14.238;2024-02-04T03:35:54;100665.78;;;7.19;100.00
84318;BME280;74497;51.654;14.238;2024-02-04T03:38:20;100674.38;;;7.22;100.00
84318;BME280;74497;51.654;14.238;2024-02-04T03:40:46;100673.25;;;7.25;100.00
84318;BME280;74497;51.654;14.238;2024-02-04T03:43:14;100676.78;;;7.25;100.00
84318;BME280;74497;51.654;14.238;2024-02-04T03:45:40;100689.94;;;7.27;100.00
84318;BME280;74497;51.654;14.238;2024-02-04T03:48:05;100692.47;;;7.28;100.00
84318;BME280;74497;51.654;14.238;2024-02-04T03:50:31;100689.09;;;7.26;100.00
84318;BME280;74497;51.654;14.238;2024-02-04T03:52:57;100688.84;;;7.29;100.00
84318;BME280;74497;51.654;14.238;2024-02-04T03:55:22;100681.63;;;7.20;100.00
84318;BME280;74497;51.654;14.238;2024-02-04T03:57:48;100672.56;;;7.23;100.00
84318;BME280;74497;51.654;14.238;2024-02-04T04:00:14;100669.41;;;7.18;100.00
84318;BME280;74497;51.654;14.238;2024-02-04T04:02:40;100666.53;;;7.21;100.00
84318;BME280;74497;51.654;14.238;2024-02-04T04:05:10;100666.75;;;7.18;100.00
84318;BME280;74497;51.654;14.238;2024-02-04T04:07:38;100659.53;;;7.20;100.00
84318;BME280;74497;51.654;14.238;2024-02-04T04:10:04;100657.59;;;7.22;100.00
84318;BME280;74497;51.654;14.238;2024-02-04T04:12:30;100653.81;;;7.24;100.00
84318;BME280;74497;51.654;14.238;2024-02-04T04:14:56;100647.81;;;7.22;100.00
84318;BME280;74497;51.654;14.238;2024-02-04T04:17:21;100653.97;;;7.23;100.00
84318;BME280;74497;51.654;14.238;2024-02-04T04:19:47;100650.31;;;7.24;100.00
84318;BME280;74497;51.654;14.238;2024-02-04T04:22:13;100664.00;;;7.19;100.00
84318;BME280;74497;51.654;14.238;2024-02-04T04:24:38;100657.59;;;7.22;100.00
84318;BME280;74497;51.654;14.238;2024-02-04T04:27:04;100653.97;;;7.23;100.00
84318;BME280;74497;51.654;14.238;2024-02-04T04:29:29;100658.19;;;7.25;100.00
84318;BME280;74497;51.654;14.238;2024-02-04T04:31:55;100650.22;;;7.25;100.00
84318;BME280;74497;51.654;14.238;2024-02-04T04:34:21;100648.63;;;7.23;100.00
84318;BME280;74497;51.654;14.238;2024-02-04T04:36:46;100644.16;;;7.23;100.00
84318;BME280;74497;51.654;14.238;2024-02-04T04:39:12;100646.69;;;7.25;100.00
84318;BME280;74497;51.654;14.238;2024-02-04T04:41:39;100650.31;;;7.24;100.00
84318;BME280;74497;51.654;14.238;2024-02-04T04:44:05;100646.97;;;7.22;100.00
84318;BME280;74497;51.654;14.238;2024-02-04T04:46:31;100653.81;;;7.24;100.00
84318;BME280;74497;51.654;14.238;2024-02-04T04:48:56;100645.00;;;7.24;100.00
84318;BME280;74497;51.654;14.238;2024-02-04T04:51:24;100631.03;;;7.22;100.00
84318;BME280;74497;51.654;14.238;2024-02-04T04:53:49;100646.25;;;7.20;100.00
84318;BME280;74497;51.654;14.238;2024-02-04T04:56:15;100635.16;;;7.15;100.00
84318;BME280;74497;51.654;14.238;2024-02-04T04:58:41;100620.19;;;7.14;100.00
84318;BME280;74497;51.654;14.238;2024-02-04T05:01:06;100618.94;;;7.18;100.00
84318;BME280;74497;51.654;14.238;2024-02-04T05:03:32;100605.22;;;7.13;100.00
84318;BME280;74497;51.654;14.238;2024-02-04T05:05:58;100610.53;;;7.13;100.00
84318;BME280;74497;51.654;14.238;2024-02-04T05:08:23;100620.91;;;7.16;100.00
84318;BME280;74497;51.654;14.238;2024-02-04T05:10:49;100622.72;;;7.15;100.00
84318;BME280;74497;51.654;14.238;2024-02-04T05:13:15;100617.53;;;7.14;100.00
84318;BME280;74497;51.654;14.238;2024-02-04T05:15:40;100625.84;;;7.09;100.00
84318;BME280;74497;51.654;14.238;2024-02-04T05:18:06;100612.72;;;7.08;100.00
84318;BME280;74497;51.654;14.238;2024-02-04T05:20:31;100612.94;;;7.04;100.00
84318;BME280;74497;51.654;14.238;2024-02-04T05:22:57;100614.06;;;7.02;100.00
84318;BME280;74497;51.654;14.238;2024-02-04T05:25:24;100612.38;;;7.01;100.00
84318;BME280;74497;51.654;14.238;2024-02-04T05:27:51;100613.56;;;6.97;100.00
84318;BME280;74497;51.654;14.238;2024-02-04T05:30:17;100609.09;;;6.97;100.00
84318;BME280;74497;51.654;14.238;2024-02-04T05:32:42;100609.22;;;6.96;100.00
84318;BME280;74497;51.654;14.238;2024-02-04T05:35:10;100605.25;;;6.90;100.00
84318;BME280;74497;51.654;14.238;2024-02-04T05:37:36;100604.41;;;6.90;100.00
84318;BME280;74497;51.654;14.238;2024-02-04T05:40:02;100601.75;;;6.90;100.00
84318;BME280;74497;51.654;14.238;2024-02-04T05:42:29;100606.72;;;6.83;100.00
84318;BME280;74497;51.654;14.238;2024-02-04T05:44:57;100604.78;;;6.85;100.00
84318;BME280;74497;51.654;14.238;2024-02-04T05:47:23;100612.03;;;6.83;100.00
84318;BME280;74497;51.654;14.238;2024-02-04T05:49:49;100612.25;;;6.80;100.00
84318;BME280;74497;51.654;14.238;2024-02-04T05:52:15;100607.22;;;6.77;100.00
84318;BME280;74497;51.654;14.238;2024-02-04T05:54:40;100602.88;;;6.76;100.00
84318;BME280;74497;51.654;14.238;2024-02-04T05:57:06;100605.66;;;6.74;100.00
84318;BME280;74497;51.654;14.238;2024-02-04T05:59:33;100599.47;;;6.74;100.00
84318;BME280;74497;51.654;14.238;2024-02-04T06:01:59;100591.66;;;6.72;100.00
84318;BME280;74497;51.654;14.238;2024-02-04T06:04:25;100593.47;;;6.72;100.00
84318;BME280;74497;51.654;14.238;2024-02-04T06:06:50;100576.56;;;6.73;100.00
84318;BME280;74497;51.654;14.238;2024-02-04T06:09:16;100588.16;;;6.72;100.00
84318;BME280;74497;51.654;14.238;2024-02-04T06:11:45;100585.00;;;6.78;100.00
84318;BME280;74497;51.654;14.238;2024-02-04T06:14:10;100592.25;;;6.76;100.00
84318;BME280;74497;51.654;14.238;2024-02-04T06:16:36;100596.34;;;6.80;100.00
84318;BME280;74497;51.654;14.238;2024-02-04T06:19:02;100601.41;;;6.83;100.00
84318;BME280;74497;51.654;14.238;2024-02-04T06:21:28;100593.19;;;6.86;100.00
84318;BME280;74497;51.654;14.238;2024-02-04T06:23:53;100597.28;;;6.90;100.00
84318;BME280;74497;51.654;14.238;2024-02-04T06:26:19;100593.31;;;6.96;100.00
84318;BME280;74497;51.654;14.238;2024-02-04T06:28:45;100596.31;;;7.02;100.00
84318;BME280;74497;51.654;14.238;2024-02-04T06:31:12;100595.09;;;7.07;100.00
84318;BME280;74497;51.654;14.238;2024-02-04T06:33:38;100591.19;;;7.11;100.00
84318;BME280;74497;51.654;14.238;2024-02-04T06:36:09;100588.88;;;7.17;100.00
84318;BME280;74497;51.654;14.238;2024-02-04T06:38:34;100593.81;;;7.22;100.00
84318;BME280;74497;51.654;14.238;2024-02-04T06:41:00;100599.34;;;7.30;100.00
84318;BME280;74497;51.654;14.238;2024-02-04T06:43:26;100593.91;;;7.31;100.00
84318;BME280;74497;51.654;14.238;2024-02-04T06:45:51;100598.28;;;7.32;100.00
84318;BME280;74497;51.654;14.238;2024-02-04T06:48:19;100597.81;;;7.27;100.00
84318;BME280;74497;51.654;14.238;2024-02-04T06:50:45;100594.88;;;7.30;100.00
84318;BME280;74497;51.654;14.238;2024-02-04T06:53:13;100585.88;;;7.43;100.00
84318;BME280;74497;51.654;14.238;2024-02-04T06:55:39;100582.00;;;7.47;100.00
84318;BME280;74497;51.654;14.238;2024-02-04T06:58:05;100574.03;;;7.47;100.00
84318;BME280;74497;51.654;14.238;2024-02-04T07:00:31;100575.53;;;7.61;100.00
84318;BME280;74497;51.654;14.238;2024-02-04T07:02:56;100570.00;;;7.64;100.00
84318;BME280;74497;51.654;14.238;2024-02-04T07:05:22;100576.72;;;7.68;100.00
84318;BME280;74497;51.654;14.238;2024-02-04T07:07:49;100568.59;;;7.69;100.00
84318;BME280;74497;51.654;14.238;2024-02-04T07:10:15;100553.25;;;7.73;100.00
84318;BME280;74497;51.654;14.238;2024-02-04T07:12:41;100551.19;;;7.76;100.00
84318;BME280;74497;51.654;14.238;2024-02-04T07:15:07;100556.53;;;7.86;100.00
84318;BME280;74497;51.654;14.238;2024-02-04T07:17:34;100563.00;;;7.93;100.00
84318;BME280;74497;51.654;14.238;2024-02-04T07:20:01;100567.25;;;7.96;100.00
84318;BME280;74497;51.654;14.238;2024-02-04T07:22:28;100560.81;;;7.98;100.00
84318;BME280;74497;51.654;14.238;2024-02-04T07:24:53;100563.19;;;8.01;100.00
84318;BME280;74497;51.654;14.238;2024-02-04T07:27:19;100563.78;;;8.05;100.00
84318;BME280;74497;51.654;14.238;2024-02-04T07:29:45;100554.00;;;8.05;100.00
84318;BME280;74497;51.654;14.238;2024-02-04T07:32:13;100552.56;;;8.01;100.00
84318;BME280;74497;51.654;14.238;2024-02-04T07:34:40;100557.25;;;8.09;100.00
84318;BME280;74497;51.654;14.238;2024-02-04T07:37:06;100561.44;;;8.11;100.00
84318;BME280;74497;51.654;14.238;2024-02-04T07:39:31;100562.28;;;8.12;100.00
84318;BME280;74497;51.654;14.238;2024-02-04T07:41:57;100557.56;;;8.16;100.00
84318;BME280;74497;51.654;14.238;2024-02-04T07:44:28;100548.19;;;8.21;100.00
84318;BME280;74497;51.654;14.238;2024-02-04T07:46:55;100550.97;;;8.20;100.00
84318;BME280;74497;51.654;14.238;2024-02-04T07:49:20;100545.75;;;8.08;100.00
84318;BME280;74497;51.654;14.238;2024-02-04T07:51:46;100534.69;;;8.13;100.00
84318;BME280;74497;51.654;14.238;2024-02-04T07:54:12;100523.94;;;8.15;100.00
84318;BME280;74497;51.654;14.238;2024-02-04T07:56:38;100530.41;;;8.22;100.00
84318;BME280;74497;51.654;14.238;2024-02-04T07:59:03;100527.91;;;8.30;100.00
84318;BME280;74497;51.654;14.238;2024-02-04T08:01:30;100527.53;;;8.34;100.00
84318;BME280;74497;51.654;14.238;2024-02-04T08:03:56;100524.59;;;8.37;100.00
84318;BME280;74497;51.654;14.238;2024-02-04T08:06:22;100530.78;;;8.38;100.00
84318;BME280;74497;51.654;14.238;2024-02-04T08:08:47;100533.19;;;8.41;100.00
84318;BME280;74497;51.654;14.238;2024-02-04T08:11:17;100524.22;;;8.42;100.00
84318;BME280;74497;51.654;14.238;2024-02-04T08:13:43;100518.19;;;8.40;100.00
84318;BME280;74497;51.654;14.238;2024-02-04T08:16:10;100531.22;;;8.43;100.00
84318;BME280;74497;51.654;14.238;2024-02-04T08:18:36;100525.75;;;8.45;100.00
84318;BME280;74497;51.654;14.238;2024-02-04T08:21:01;100531.13;;;8.54;100.00
84318;BME280;74497;51.654;14.238;2024-02-04T08:23:27;100526.50;;;8.56;100.00
84318;BME280;74497;51.654;14.238;2024-02-04T08:25:53;100530.44;;;8.62;100.00
84318;BME280;74497;51.654;14.238;2024-02-04T08:28:19;100508.72;;;8.66;100.00
84318;BME280;74497;51.654;14.238;2024-02-04T08:30:44;100510.13;;;8.71;100.00
84318;BME280;74497;51.654;14.238;2024-02-04T08:33:10;100521.63;;;8.81;100.00
84318;BME280;74497;51.654;14.238;2024-02-04T08:35:36;100524.72;;;8.86;100.00
84318;BME280;74497;51.654;14.238;2024-02-04T08:38:02;100521.22;;;8.95;100.00
84318;BME280;74497;51.654;14.238;2024-02-04T08:40:27;100510.88;;;8.92;100.00
84318;BME280;74497;51.654;14.238;2024-02-04T08:42:53;100519.41;;;8.96;100.00
84318;BME280;74497;51.654;14.238;2024-02-04T08:45:19;100520.09;;;8.88;100.00
84318;BME280;74497;51.654;14.238;2024-02-04T08:47:44;100504.81;;;8.90;100.00
84318;BME280;74497;51.654;14.238;2024-02-04T08:50:11;100495.28;;;8.87;100.00
84318;BME280;74497;51.654;14.238;2024-02-04T08:52:37;100489.97;;;8.97;100.00
84318;BME280;74497;51.654;14.238;2024-02-04T08:55:03;100481.00;;;9.08;100.00
84318;BME280;74497;51.654;14.238;2024-02-04T08:57:29;100485.59;;;9.15;100.00
84318;BME280;74497;51.654;14.238;2024-02-04T08:59:55;100481.81;;;9.28;100.00
84318;BME280;74497;51.654;14.238;2024-02-04T09:02:21;100477.34;;;9.18;100.00
84318;BME280;74497;51.654;14.238;2024-02-04T09:04:46;100487.72;;;9.21;100.00
84318;BME280;74497;51.654;14.238;2024-02-04T09:07:12;100483.38;;;9.20;100.00
84318;BME280;74497;51.654;14.238;2024-02-04T09:09:38;100489.53;;;9.21;100.00
84318;BME280;74497;51.654;14.238;2024-02-04T09:12:04;100482.81;;;9.27;100.00
84318;BME280;74497;51.654;14.238;2024-02-04T09:14:29;100488.81;;;9.29;100.00
84318;BME280;74497;51.654;14.238;2024-02-04T09:16:55;100482.94;;;9.35;100.00
84318;BME280;74497;51.654;14.238;2024-02-04T09:19:20;100484.91;;;9.33;100.00
84318;BME280;74497;51.654;14.238;2024-02-04T09:21:46;100474.66;;;9.28;100.00
84318;BME280;74497;51.654;14.238;2024-02-04T09:24:12;100475.38;;;9.30;100.00
84318;BME280;74497;51.654;14.238;2024-02-04T09:26:37;100472.28;;;9.25;100.00
84318;BME280;74497;51.654;14.238;2024-02-04T09:29:04;100465.72;;;9.29;100.00
84318;BME280;74497;51.654;14.238;2024-02-04T09:31:30;100460.66;;;9.26;100.00
84318;BME280;74497;51.654;14.238;2024-02-04T09:33:56;100466.69;;;9.18;100.00
84318;BME280;74497;51.654;14.238;2024-02-04T09:36:23;100464.44;;;9.24;100.00
84318;BME280;74497;51.654;14.238;2024-02-04T09:38:48;100454.59;;;9.34;100.00
84318;BME280;74497;51.654;14.238;2024-02-04T09:41:14;100461.34;;;9.38;100.00
84318;BME280;74497;51.654;14.238;2024-02-04T09:43:40;100465.53;;;9.40;100.00
84318;BME280;74497;51.654;14.238;2024-02-04T09:46:06;100468.88;;;9.52;100.00
84318;BME280;74497;51.654;14.238;2024-02-04T09:48:32;100461.19;;;9.49;100.00
84318;BME280;74497;51.654;14.238;2024-02-04T09:50:58;100451.50;;;9.38;100.00
84318;BME280;74497;51.654;14.238;2024-02-04T09:53:35;100444.50;;;9.37;100.00
84318;BME280;74497;51.654;14.238;2024-02-04T09:56:02;100450.81;;;9.36;100.00
84318;BME280;74497;51.654;14.238;2024-02-04T09:58:28;100457.00;;;9.37;100.00
84318;BME280;74497;51.654;14.238;2024-02-04T10:00:54;100467.81;;;9.35;100.00
84318;BME280;74497;51.654;14.238;2024-02-04T10:03:20;100464.16;;;9.27;100.00
84318;BME280;74497;51.654;14.238;2024-02-04T10:05:47;100458.69;;;9.18;100.00
84318;BME280;74497;51.654;14.238;2024-02-04T10:08:13;100459.38;;;9.20;100.00
84318;BME280;74497;51.654;14.238;2024-02-04T10:10:39;100449.00;;;9.27;100.00
84318;BME280;74497;51.654;14.238;2024-02-04T10:13:08;100446.75;;;9.32;100.00
84318;BME280;74497;51.654;14.238;2024-02-04T10:15:34;100438.59;;;9.34;100.00
84318;BME280;74497;51.654;14.238;2024-02-04T10:18:04;100435.66;;;9.27;100.00
84318;BME280;74497;51.654;14.238;2024-02-04T10:20:30;100432.00;;;9.28;100.00
84318;BME280;74497;51.654;14.238;2024-02-04T10:22:56;100434.69;;;9.28;100.00
84318;BME280;74497;51.654;14.238;2024-02-04T10:25:22;100434.25;;;9.33;100.00
84318;BME280;74497;51.654;14.238;2024-02-04T10:27:47;100443.66;;;9.37;100.00
84318;BME280;74497;51.654;14.238;2024-02-04T10:30:13;100440.84;;;9.29;100.00
84318;BME280;74497;51.654;14.238;2024-02-04T10:32:41;100439.06;;;9.29;100.00
84318;BME280;74497;51.654;14.238;2024-02-04T10:35:10;100434.94;;;9.35;100.00
84318;BME280;74497;51.654;14.238;2024-02-04T10:37:35;100438.34;;;9.37;100.00
84318;BME280;74497;51.654;14.238;2024-02-04T10:40:01;100408.75;;;9.20;100.00
84318;BME280;74497;51.654;14.238;2024-02-04T10:42:29;100404.25;;;9.31;100.00
84318;BME280;74497;51.654;14.238;2024-02-04T10:44:57;100389.63;;;9.35;100.00
84318;BME280;74497;51.654;14.238;2024-02-04T10:47:30;100395.09;;;9.43;100.00
84318;BME280;74497;51.654;14.238;2024-02-04T10:49:58;100399.88;;;9.39;100.00
84318;BME280;74497;51.654;14.238;2024-02-04T10:52:27;100390.88;;;9.40;100.00
84318;BME280;74497;51.654;14.238;2024-02-04T10:54:53;100387.78;;;9.45;100.00
84318;BME280;74497;51.654;14.238;2024-02-04T10:57:22;100391.59;;;9.42;100.00
84318;BME280;74497;51.654;14.238;2024-02-04T10:59:53;100384.88;;;9.38;100.00
84318;BME280;74497;51.654;14.238;2024-02-04T11:02:20;100379.53;;;9.48;100.00
84318;BME280;74497;51.654;14.238;2024-02-04T11:04:48;100373.78;;;9.43;100.00
84318;BME280;74497;51.654;14.238;2024-02-04T11:07:14;100383.88;;;9.49;100.00
84318;BME280;74497;51.654;14.238;2024-02-04T11:09:40;100368.13;;;9.46;100.00
84318;BME280;74497;51.654;14.238;2024-02-04T11:12:11;100360.31;;;9.44;100.00
84318;BME280;74497;51.654;14.238;2024-02-04T11:14:40;100347.22;;;9.51;100.00
84318;BME280;74497;51.654;14.238;2024-02-04T11:19:59;100355.41;;;9.40;100.00
84318;BME280;74497;51.654;14.238;2024-02-04T11:22:33;100342.38;;;9.37;100.00
84318;BME280;74497;51.654;14.238;2024-02-04T11:27:53;100358.53;;;9.26;100.00
84318;BME280;74497;51.654;14.238;2024-02-04T11:30:19;100341.16;;;9.21;100.00
84318;BME280;74497;51.654;14.238;2024-02-04T11:32:45;100346.63;;;9.20;100.00
84318;BME280;74497;51.654;14.238;2024-02-04T11:35:12;100339.91;;;9.16;100.00
84318;BME280;74497;51.654;14.238;2024-02-04T11:37:38;100353.81;;;9.10;100.00
84318;BME280;74497;51.654;14.238;2024-02-04T11:40:07;100351.16;;;9.00;100.00
84318;BME280;74497;51.654;14.238;2024-02-04T11:42:33;100365.75;;;9.06;100.00
84318;BME280;74497;51.654;14.238;2024-02-04T11:45:09;100364.78;;;8.97;100.00
84318;BME280;74497;51.654;14.238;2024-02-04T11:47:37;100369.69;;;8.92;100.00
84318;BME280;74497;51.654;14.238;2024-02-04T11:50:03;100367.44;;;8.87;100.00
84318;BME280;74497;51.654;14.238;2024-02-04T11:52:29;100365.34;;;8.81;100.00
84318;BME280;74497;51.654;14.238;2024-02-04T11:54:55;100368.59;;;8.85;100.00
84318;BME280;74497;51.654;14.238;2024-02-04T11:57:21;100366.50;;;8.79;100.00
84318;BME280;74497;51.654;14.238;2024-02-04T11:59:48;100356.78;;;8.78;100.00
84318;BME280;74497;51.654;14.238;2024-02-04T12:02:17;100340.69;;;8.79;100.00
84318;BME280;74497;51.654;14.238;2024-02-04T12:04:44;100339.56;;;8.82;100.00
84318;BME280;74497;51.654;14.238;2024-02-04T12:07:10;100319.50;;;8.78;100.00
84318;BME280;74497;51.654;14.238;2024-02-04T12:09:36;100329.59;;;8.84;100.00
84318;BME280;74497;51.654;14.238;2024-02-04T12:12:02;100302.53;;;8.88;100.00
84318;BME280;74497;51.654;14.238;2024-02-04T12:14:28;100291.47;;;8.93;100.00
84318;BME280;74497;51.654;14.238;2024-02-04T12:16:56;100277.16;;;8.94;100.00
84318;BME280;74497;51.654;14.238;2024-02-04T12:19:23;100274.75;;;9.01;100.00
84318;BME280;74497;51.654;14.238;2024-02-04T12:21:49;100280.63;;;9.04;100.00
84318;BME280;74497;51.654;14.238;2024-02-04T12:24:15;100283.31;;;9.04;100.00
84318;BME280;74497;51.654;14.238;2024-02-04T12:26:41;100273.75;;;9.11;100.00
84318;BME280;74497;51.654;14.238;2024-02-04T12:29:07;100264.91;;;9.11;100.00
84318;BME280;74497;51.654;14.238;2024-02-04T12:31:33;100262.38;;;9.09;100.00
84318;BME280;74497;51.654;14.238;2024-02-04T12:34:00;100265.56;;;9.23;100.00
84318;BME280;74497;51.654;14.238;2024-02-04T12:36:31;100257.94;;;9.28;100.00
84318;BME280;74497;51.654;14.238;2024-02-04T12:38:58;100264.28;;;9.27;100.00
84318;BME280;74497;51.654;14.238;2024-02-04T12:41:26;100258.25;;;9.25;100.00
84318;BME280;74497;51.654;14.238;2024-02-04T12:43:54;100249.84;;;9.19;100.00
84318;BME280;74497;51.654;14.238;2024-02-04T12:46:21;100251.63;;;9.29;100.00